Time;durP1;ratioP1;P1;durP2;ratioP2;P2;SDS_P1;SDS_P2;PMS_P1;PMS_P2;Temp;Humidity;BMP_temperature;BMP_pressure;BME280_temperature;BME280_humidity;BME280_pressure;Samples;Min_cycle;Max_cycle;Signal;HPM_P1;HPM_P2
2022/06/06 00:01:16;;;;;;;;;;;;;;;17.02;66.63;100874.47;5040305;28;2022;-95
2022/06/06 00:03:42;;;;;;;;;;;;;;;17.02;66.63;100873.66;5054804;28;1922;-95
2022/06/06 00:06:09;;;;;;;;;;;;;;;17.00;66.50;100873.09;5055001;28;1077;-95
2022/06/06 00:08:36;;;;;;;;;;;;;;;16.99;66.55;100869.56;5054686;28;1213;-95
2022/06/06 00:11:04;;;;;;;;;;;;;;;16.99;66.48;100871.47;5055198;28;1395;-95
2022/06/06 00:13:31;;;;;;;;;;;;;;;16.98;66.36;100872.53;5053510;28;1903;-95
2022/06/06 00:15:58;;;;;;;;;;;;;;;16.96;66.42;100869.25;5069443;28;1832;-94
2022/06/06 00:18:25;;;;;;;;;;;;;;;16.95;66.45;100870.34;5041856;28;976;-95
2022/06/06 00:20:51;;;;;;;;;;;;;;;16.94;66.43;100866.81;5054785;28;1405;-95
2022/06/06 00:23:18;;;;;;;;;;;;;;;16.93;66.24;100865.13;5054569;28;1918;-95
2022/06/06 00:25:44;;;;;;;;;;;;;;;16.92;66.17;100862.69;5048606;28;2333;-95
2022/06/06 00:28:11;;;;;;;;;;;;;;;16.90;66.28;100857.47;5056328;28;2021;-95
2022/06/06 00:30:37;;;;;;;;;;;;;;;16.89;66.19;100855.03;5051368;28;2105;-95
2022/06/06 00:36:00;;;;;;;;;;;;;;;16.87;66.32;100858.00;4993785;28;1487;-95
2022/06/06 00:38:26;;;;;;;;;;;;;;;16.86;66.21;100858.25;5032170;28;1802;-95
2022/06/06 00:40:53;;;;;;;;;;;;;;;16.85;66.06;100856.59;5071464;28;1241;-95
2022/06/06 00:43:19;;;;;;;;;;;;;;;16.84;66.19;100857.69;5054335;28;1988;-95
2022/06/06 00:45:46;;;;;;;;;;;;;;;16.83;66.04;100853.34;5051207;28;2568;-95
2022/06/06 00:48:12;;;;;;;;;;;;;;;16.80;66.17;100858.19;5053746;28;2268;-95
2022/06/06 00:50:39;;;;;;;;;;;;;;;16.80;66.09;100860.09;5054441;28;1244;-95
2022/06/06 00:53:05;;;;;;;;;;;;;;;16.79;66.14;100850.28;5053993;28;1350;-95
2022/06/06 00:55:32;;;;;;;;;;;;;;;16.78;66.05;100859.53;5054443;28;1186;-95
2022/06/06 00:57:58;;;;;;;;;;;;;;;16.77;66.00;100857.88;5054381;28;1227;-95
2022/06/06 01:00:25;;;;;;;;;;;;;;;16.76;65.99;100853.50;5041890;28;2107;-95
2022/06/06 01:02:52;;;;;;;;;;;;;;;16.74;65.96;100852.91;5048673;28;2175;-95
2022/06/06 01:05:18;;;;;;;;;;;;;;;16.73;65.80;100856.69;5069493;28;1325;-95
2022/06/06 01:07:45;;;;;;;;;;;;;;;16.71;65.96;100848.81;5054803;28;1455;-95
2022/06/06 01:10:11;;;;;;;;;;;;;;;16.70;65.88;100849.03;5035176;28;1008;-95
2022/06/06 01:12:38;;;;;;;;;;;;;;;16.69;65.82;100848.22;5041359;28;1713;-95
2022/06/06 01:15:05;;;;;;;;;;;;;;;16.69;65.71;100856.38;5047596;28;2038;-95
2022/06/06 01:17:31;;;;;;;;;;;;;;;16.67;65.85;100853.09;5052857;28;1825;-95
2022/06/06 01:19:58;;;;;;;;;;;;;;;16.66;65.87;100854.19;5042402;28;1929;-95
2022/06/06 01:22:24;;;;;;;;;;;;;;;16.65;65.73;100854.41;5033817;28;1977;-95
2022/06/06 01:24:51;;;;;;;;;;;;;;;16.64;65.73;100850.06;5035862;28;1307;-95
2022/06/06 01:27:18;;;;;;;;;;;;;;;16.63;65.71;100856.59;5073856;28;1361;-95
2022/06/06 01:29:44;;;;;;;;;;;;;;;16.61;65.69;100854.09;5073420;28;2123;-94
2022/06/06 01:32:11;;;;;;;;;;;;;;;16.60;65.54;100851.66;5056454;28;2393;-95
2022/06/06 01:34:37;;;;;;;;;;;;;;;16.59;65.73;100853.56;5074661;28;1301;-95
2022/06/06 01:37:04;;;;;;;;;;;;;;;16.57;65.46;100851.06;5064859;28;1994;-95
2022/06/06 01:39:31;;;;;;;;;;;;;;;16.56;65.65;100846.72;5038173;28;1318;-95
2022/06/06 01:41:57;;;;;;;;;;;;;;;16.55;65.64;100850.50;5039278;28;1266;-95
2022/06/06 01:44:24;;;;;;;;;;;;;;;16.54;65.57;100856.19;5073195;28;1961;-95
2022/06/06 01:46:51;;;;;;;;;;;;;;;16.53;65.54;100849.94;5056848;28;1904;-95
2022/06/06 01:49:17;;;;;;;;;;;;;;;16.51;65.51;100854.81;5057570;28;1256;-95
2022/06/06 01:51:43;;;;;;;;;;;;;;;16.49;65.61;100840.63;5051919;28;3824;-95
2022/06/06 01:54:10;;;;;;;;;;;;;;;16.49;65.40;100842.53;5049613;28;2096;-94
2022/06/06 01:56:38;;;;;;;;;;;;;;;16.47;65.44;100847.38;5045304;28;1384;-95
2022/06/06 01:59:04;;;;;;;;;;;;;;;16.46;65.47;100843.03;5049757;28;1809;-95
2022/06/06 02:01:31;;;;;;;;;;;;;;;16.45;65.45;100844.94;5036545;28;1948;-95
2022/06/06 02:03:58;;;;;;;;;;;;;;;16.43;65.51;100836.19;5037218;28;1910;-95
2022/06/06 02:06:25;;;;;;;;;;;;;;;16.43;65.36;100843.53;5036974;28;1777;-95
2022/06/06 02:08:51;;;;;;;;;;;;;;;16.41;65.33;100841.06;5052549;28;1991;-95
2022/06/06 02:11:18;;;;;;;;;;;;;;;16.39;65.37;100843.22;5037237;28;1215;-95
2022/06/06 02:13:45;;;;;;;;;;;;;;;16.38;65.38;100846.19;5037297;28;1314;-95
2022/06/06 02:16:11;;;;;;;;;;;;;;;16.37;65.25;100844.53;5037257;28;1927;-95
2022/06/06 02:18:38;;;;;;;;;;;;;;;16.35;65.37;100839.34;5037051;28;1235;-95
2022/06/06 02:21:05;;;;;;;;;;;;;;;16.34;65.32;100832.28;5037061;28;1191;-95
2022/06/06 02:23:31;;;;;;;;;;;;;;;16.33;65.30;100836.06;5036796;28;1977;-95
2022/06/06 02:25:58;;;;;;;;;;;;;;;16.32;65.26;100834.41;5034595;28;4797;-95
2022/06/06 02:28:25;;;;;;;;;;;;;;;16.30;65.19;100837.41;5037093;28;1893;-95
2022/06/06 02:30:51;;;;;;;;;;;;;;;16.29;65.19;100843.06;5036431;28;1592;-95
2022/06/06 02:33:17;;;;;;;;;;;;;;;16.28;65.13;100844.16;5035200;28;1980;-94
2022/06/06 02:35:44;;;;;;;;;;;;;;;16.27;65.17;100846.06;5035222;28;1942;-95
2022/06/06 02:38:10;;;;;;;;;;;;;;;16.25;65.14;100850.09;5034636;28;2458;-95
2022/06/06 02:40:37;;;;;;;;;;;;;;;16.24;65.11;100841.13;5037065;28;1363;-94
2022/06/06 02:43:04;;;;;;;;;;;;;;;16.23;65.13;100841.34;5033447;28;4092;-95
2022/06/06 02:45:30;;;;;;;;;;;;;;;16.21;65.06;100841.63;5033422;28;1199;-94
2022/06/06 02:47:57;;;;;;;;;;;;;;;16.21;65.02;100852.50;5048467;28;2108;-95
2022/06/06 02:50:25;;;;;;;;;;;;;;;16.19;64.96;100843.75;5052967;28;1240;-95
2022/06/06 02:52:51;;;;;;;;;;;;;;;16.18;65.04;100842.13;5041976;28;1290;-94
2022/06/06 02:55:17;;;;;;;;;;;;;;;16.17;64.88;100847.78;5070904;28;2508;-95
2022/06/06 02:57:44;;;;;;;;;;;;;;;16.15;64.97;100844.50;5051916;28;1946;-94
2022/06/06 03:00:11;;;;;;;;;;;;;;;16.13;64.94;100847.47;5038262;28;3902;-96
2022/06/06 03:02:37;;;;;;;;;;;;;;;16.11;64.88;100853.13;5049452;28;2043;-94
2022/06/06 03:05:04;;;;;;;;;;;;;;;16.13;64.84;100852.91;5055851;28;1363;-95
2022/06/06 03:07:31;;;;;;;;;;;;;;;16.10;64.89;100848.78;5058080;28;1648;-95
2022/06/06 03:09:57;;;;;;;;;;;;;;;16.08;64.87;100853.63;5072851;28;1195;-94
2022/06/06 03:12:23;;;;;;;;;;;;;;;16.06;64.87;100855.81;5072837;28;1191;-95
2022/06/06 03:14:50;;;;;;;;;;;;;;;16.05;64.88;100851.44;5072791;28;1210;-94
2022/06/06 03:22:45;;;;;;;;;;;;;;;16.02;64.78;100870.13;5072568;28;1906;-95
2022/06/06 03:25:12;;;;;;;;;;;;;;;15.99;64.81;100865.19;5056612;28;1349;-95
2022/06/06 03:27:39;;;;;;;;;;;;;;;16.00;64.69;100869.53;5071312;28;1951;-94
2022/06/06 03:30:06;;;;;;;;;;;;;;;15.98;64.77;100868.97;5057084;28;973;-95
2022/06/06 03:32:32;;;;;;;;;;;;;;;15.96;64.74;100865.69;5071023;28;2106;-95
2022/06/06 03:34:59;;;;;;;;;;;;;;;15.94;64.64;100859.66;5055112;28;1550;-95
2022/06/06 03:37:26;;;;;;;;;;;;;;;15.94;64.67;100859.66;5043786;28;1771;-94
2022/06/06 03:39:53;;;;;;;;;;;;;;;15.93;64.63;100860.75;5039683;28;1202;-94
2022/06/06 03:42:19;;;;;;;;;;;;;;;15.90;64.81;100851.19;5086717;28;1266;-95
2022/06/06 03:44:46;;;;;;;;;;;;;;;15.91;64.62;100855.53;5055226;28;1982;-95
2022/06/06 03:47:13;;;;;;;;;;;;;;;15.88;64.64;100851.47;5070924;28;2059;-94
2022/06/06 03:49:40;;;;;;;;;;;;;;;15.88;64.60;100850.59;5055520;28;1351;-95
2022/06/06 03:52:06;;;;;;;;;;;;;;;15.86;64.57;100850.88;5055456;28;1213;-94
2022/06/06 03:54:33;;;;;;;;;;;;;;;15.85;64.59;100849.25;5059823;28;2025;-94
2022/06/06 03:56:59;;;;;;;;;;;;;;;15.85;64.49;100854.66;5082707;28;2009;-94
2022/06/06 03:59:26;;;;;;;;;;;;;;;15.83;64.44;100850.56;5058692;28;1378;-94
2022/06/06 04:01:53;;;;;;;;;;;;;;;15.82;64.45;100852.41;5053391;28;2211;-95
2022/06/06 04:04:20;;;;;;;;;;;;;;;15.81;64.45;100850.78;5038482;28;1959;-94
2022/06/06 04:06:46;;;;;;;;;;;;;;;15.81;64.53;100853.50;5055858;28;3489;-94
2022/06/06 04:09:13;;;;;;;;;;;;;;;15.79;64.45;100849.38;5058491;28;1208;-94
2022/06/06 04:11:40;;;;;;;;;;;;;;;15.77;64.49;100846.13;5057264;28;1984;-94
2022/06/06 04:14:06;;;;;;;;;;;;;;;15.77;64.37;100852.34;5038385;28;1216;-94
2022/06/06 04:16:33;;;;;;;;;;;;;;;15.77;64.37;100846.13;5038559;28;1551;-94
2022/06/06 04:18:59;;;;;;;;;;;;;;;15.76;64.33;100850.69;5074064;28;1194;-93
2022/06/06 04:21:26;;;;;;;;;;;;;;;15.74;64.35;100852.84;5091516;28;1166;-94
2022/06/06 04:23:52;;;;;;;;;;;;;;;15.74;64.29;100847.44;5074490;28;1958;-94
2022/06/06 04:26:19;;;;;;;;;;;;;;;15.72;64.29;100848.75;5057863;28;1156;-92
2022/06/06 04:28:45;;;;;;;;;;;;;;;15.71;64.19;100844.38;5057925;28;1329;-94
2022/06/06 04:31:12;;;;;;;;;;;;;;;15.70;64.47;100846.25;5059189;28;1951;-94
2022/06/06 04:33:39;;;;;;;;;;;;;;;15.69;64.27;100843.81;5056344;28;1752;-94
2022/06/06 04:36:06;;;;;;;;;;;;;;;15.68;64.15;100834.84;5057376;28;2049;-94
2022/06/06 04:38:33;;;;;;;;;;;;;;;15.67;64.15;100828.56;5042218;28;1268;-94
2022/06/06 04:40:59;;;;;;;;;;;;;;;15.66;64.19;100826.88;5056856;28;1866;-94
2022/06/06 04:43:26;;;;;;;;;;;;;;;15.64;64.13;100820.88;5057377;28;1976;-94
2022/06/06 04:45:52;;;;;;;;;;;;;;;15.64;64.12;100818.16;5091179;28;1198;-93
2022/06/06 04:48:19;;;;;;;;;;;;;;;15.63;64.08;100821.97;5069136;28;2115;-94
2022/06/06 04:50:45;;;;;;;;;;;;;;;15.63;64.18;100818.44;5074110;28;1171;-94
2022/06/06 04:53:12;;;;;;;;;;;;;;;15.62;64.16;100811.38;5061193;28;1702;-94
2022/06/06 04:55:40;;;;;;;;;;;;;;;15.61;64.05;100813.22;5056347;28;4786;-94
2022/06/06 04:58:07;;;;;;;;;;;;;;;15.61;64.04;100812.41;5046054;28;2764;-94
2022/06/06 05:00:33;;;;;;;;;;;;;;;15.61;63.95;100806.97;5056956;28;1270;-94
2022/06/06 05:03:00;;;;;;;;;;;;;;;15.59;63.96;100807.25;5076040;28;1918;-94
2022/06/06 05:05:26;;;;;;;;;;;;;;;15.59;63.95;100809.13;5055304;28;961;-94
2022/06/06 05:07:53;;;;;;;;;;;;;;;15.58;63.85;100799.34;5056303;28;1886;-94
2022/06/06 05:10:19;;;;;;;;;;;;;;;15.57;63.95;100805.84;5037183;28;1218;-94
2022/06/06 05:12:47;;;;;;;;;;;;;;;15.57;63.92;100806.66;5037364;28;2084;-94
2022/06/06 05:15:13;;;;;;;;;;;;;;;15.56;63.89;100809.59;5054137;28;2897;-94
2022/06/06 05:17:40;;;;;;;;;;;;;;;15.55;63.90;100802.53;5061668;28;1945;-93
2022/06/06 05:20:07;;;;;;;;;;;;;;;15.54;63.83;100800.91;5059888;28;1980;-93
2022/06/06 05:22:34;;;;;;;;;;;;;;;15.53;63.90;100802.81;5056658;28;1488;-94
2022/06/06 05:25:00;;;;;;;;;;;;;;;15.53;63.85;100805.50;5057572;28;1922;-94
2022/06/06 05:27:26;;;;;;;;;;;;;;;15.52;63.93;100803.84;5043940;28;2794;-94
2022/06/06 05:29:53;;;;;;;;;;;;;;;15.50;63.92;100811.44;5057113;28;1167;-94
2022/06/06 05:32:19;;;;;;;;;;;;;;;15.50;63.84;100807.88;5073838;28;1802;-94
2022/06/06 05:34:46;;;;;;;;;;;;;;;15.47;63.85;100803.78;5055198;28;2017;-93
2022/06/06 05:37:15;;;;;;;;;;;;;;;15.47;63.89;100806.50;5047488;28;2034;-94
2022/06/06 05:39:42;;;;;;;;;;;;;;;15.48;63.88;100815.47;5073511;28;1238;-94
2022/06/06 05:42:10;;;;;;;;;;;;;;;15.45;63.87;100820.31;5072511;28;1159;-94
2022/06/06 05:44:36;;;;;;;;;;;;;;;15.44;63.93;100813.25;5073854;28;1913;-94
2022/06/06 05:47:03;;;;;;;;;;;;;;;15.45;63.85;100816.78;5072310;28;1954;-94
2022/06/06 05:49:29;;;;;;;;;;;;;;;15.44;63.91;100824.09;5057554;28;1219;-94
2022/06/06 05:51:56;;;;;;;;;;;;;;;15.43;63.86;100816.19;5056835;28;1264;-94
2022/06/06 05:54:23;;;;;;;;;;;;;;;15.42;63.84;100826.22;5070447;28;1973;-94
2022/06/06 05:56:49;;;;;;;;;;;;;;;15.42;63.88;100818.09;5077179;28;1278;-94
2022/06/06 05:59:16;;;;;;;;;;;;;;;15.43;63.78;100829.75;5071266;28;2048;-94
2022/06/06 06:01:43;;;;;;;;;;;;;;;15.42;nan;100825.41;5055578;28;2061;-93
2022/06/06 06:04:10;;;;;;;;;;;;;;;15.42;63.76;100831.66;5056920;28;1903;-94
2022/06/06 06:06:36;;;;;;;;;;;;;;;15.42;63.81;100833.56;5086317;28;1296;-94
2022/06/06 06:09:03;;;;;;;;;;;;;;;15.41;63.67;100830.03;5059393;28;1239;-92
2022/06/06 06:11:29;;;;;;;;;;;;;;;15.42;63.67;100828.13;5073454;28;1297;-93
2022/06/06 06:13:56;;;;;;;;;;;;;;;15.41;63.61;100832.72;5072389;28;1902;-93
2022/06/06 06:16:22;;;;;;;;;;;;;;;15.41;63.59;100827.31;5049805;28;1891;-94
2022/06/06 06:18:49;;;;;;;;;;;;;;;15.41;63.62;100835.44;5094201;28;1206;-94
2022/06/06 06:21:15;;;;;;;;;;;;;;;15.40;63.72;100832.97;5078074;28;948;-93
2022/06/06 06:23:42;;;;;;;;;;;;;;;15.39;63.52;100832.16;5069896;28;1913;-93
2022/06/06 06:26:09;;;;;;;;;;;;;;;15.38;63.60;100825.09;5058004;28;988;-93
2022/06/06 06:28:36;;;;;;;;;;;;;;;15.38;63.49;100825.09;5062069;28;1988;-93
2022/06/06 06:31:03;;;;;;;;;;;;;;;15.38;63.57;100819.66;5059437;28;2049;-94
2022/06/06 06:33:29;;;;;;;;;;;;;;;15.38;63.61;100810.66;5059991;28;1179;-94
2022/06/06 06:35:56;;;;;;;;;;;;;;;15.38;63.55;100822.38;5082820;28;2029;-93
2022/06/06 06:38:22;;;;;;;;;;;;;;;15.38;63.53;100816.94;5076294;28;1602;-93
2022/06/06 06:40:49;;;;;;;;;;;;;;;15.38;63.47;100807.94;5080109;28;1174;-93
2022/06/06 06:43:15;;;;;;;;;;;;;;;15.38;63.49;100816.94;5079838;28;1228;-93
2022/06/06 06:45:42;;;;;;;;;;;;;;;15.36;63.46;100813.63;5073575;28;1917;-93
2022/06/06 06:48:10;;;;;;;;;;;;;;;15.37;63.44;100803.59;5060050;28;1185;-93
2022/06/06 06:50:37;;;;;;;;;;;;;;;15.37;63.41;100806.31;5059865;28;1483;-93
2022/06/06 06:53:03;;;;;;;;;;;;;;;15.36;63.37;100797.34;5083499;28;1570;-93
2022/06/06 06:55:30;;;;;;;;;;;;;;;15.36;63.50;100799.25;5077500;28;1278;-93
2022/06/06 06:57:56;;;;;;;;;;;;;;;15.36;63.43;100797.34;5075406;28;2036;-93
2022/06/06 07:00:23;;;;;;;;;;;;;;;15.36;63.44;100791.94;5066614;28;2105;-93
2022/06/06 07:08:35;;;;;;;;;;;;;;;15.36;63.33;100791.94;5004197;28;1294;-93
2022/06/06 07:11:02;;;;;;;;;;;;;;;15.37;63.29;100792.75;5081818;28;2166;-93
2022/06/06 07:13:30;;;;;;;;;;;;;;;15.36;63.33;100789.22;5068253;28;1387;-93
2022/06/06 07:15:57;;;;;;;;;;;;;;;15.36;63.31;100785.69;5068663;28;3059;-93
2022/06/06 07:18:23;;;;;;;;;;;;;;;15.36;63.30;100786.50;5049460;28;1389;-93
2022/06/06 07:20:50;;;;;;;;;;;;;;;15.37;63.25;100795.47;5074659;28;1842;-94
2022/06/06 07:23:16;;;;;;;;;;;;;;;15.36;63.25;100789.22;5059190;28;1371;-93
2022/06/06 07:25:43;;;;;;;;;;;;;;;15.35;63.16;100790.28;5053002;28;4623;-92
2022/06/06 07:28:09;;;;;;;;;;;;;;;15.36;63.20;100791.94;5049088;28;2291;-93
2022/06/06 07:30:36;;;;;;;;;;;;;;;15.37;63.15;100790.03;5074418;28;1940;-93
2022/06/06 07:33:02;;;;;;;;;;;;;;;15.37;63.21;100785.44;5075082;28;1950;-93
2022/06/06 07:35:29;;;;;;;;;;;;;;;15.37;63.15;100790.84;5057404;28;1866;-93
2022/06/06 07:37:56;;;;;;;;;;;;;;;15.38;63.22;100791.66;5058729;28;1296;-94
2022/06/06 07:40:23;;;;;;;;;;;;;;;15.37;63.21;100784.59;5074322;28;1365;-93
2022/06/06 07:42:50;;;;;;;;;;;;;;;15.38;63.22;100788.97;5061483;28;1924;-93
2022/06/06 07:45:16;;;;;;;;;;;;;;;15.39;63.20;100787.91;5069714;28;2723;-93
2022/06/06 07:47:43;;;;;;;;;;;;;;;15.39;63.15;100783.28;5073070;28;1345;-93
2022/06/06 07:50:10;;;;;;;;;;;;;;;15.39;63.13;100788.72;5057688;28;1373;-93
2022/06/06 07:52:36;;;;;;;;;;;;;;;15.40;63.15;100781.41;5065109;28;1755;-92
2022/06/06 07:55:02;;;;;;;;;;;;;;;15.39;63.09;100774.34;5057316;28;2452;-93
2022/06/06 07:57:29;;;;;;;;;;;;;;;15.40;63.08;100776.78;5047067;28;2498;-93
2022/06/06 07:59:55;;;;;;;;;;;;;;;15.40;63.12;100775.97;5057601;28;1206;-93
2022/06/06 08:02:22;;;;;;;;;;;;;;;15.39;63.06;100767.00;5053609;28;1710;-93
2022/06/06 08:04:48;;;;;;;;;;;;;;;15.40;63.14;100765.94;5058506;28;1906;-93
2022/06/06 08:07:14;;;;;;;;;;;;;;;15.40;63.18;100755.06;5073566;28;1660;-93
2022/06/06 08:09:41;;;;;;;;;;;;;;;15.40;63.06;100755.06;5076267;28;1182;-93
2022/06/06 08:12:08;;;;;;;;;;;;;;;15.41;63.07;100753.19;5074441;28;1281;-93
2022/06/06 08:14:35;;;;;;;;;;;;;;;15.42;63.03;100752.13;5073116;28;1178;-93
2022/06/06 08:17:01;;;;;;;;;;;;;;;15.41;63.03;100756.75;5059070;28;1940;-93
2022/06/06 08:19:28;;;;;;;;;;;;;;;15.42;63.08;100752.13;5057480;28;1270;-93
2022/06/06 08:21:55;;;;;;;;;;;;;;;15.42;62.99;100744.00;5074663;28;1274;-93
2022/06/06 08:24:22;;;;;;;;;;;;;;;15.43;63.13;100751.06;5057470;28;1910;-94
2022/06/06 08:26:49;;;;;;;;;;;;;;;15.44;63.14;100747.25;5054060;28;1247;-93
2022/06/06 08:29:15;;;;;;;;;;;;;;;15.44;63.00;100742.69;5057800;28;1167;-93
2022/06/06 08:31:42;;;;;;;;;;;;;;;15.44;63.12;100731.81;5062096;28;1215;-95
2022/06/06 08:34:08;;;;;;;;;;;;;;;15.44;63.06;100739.97;5072495;28;1660;-93
2022/06/06 08:36:35;;;;;;;;;;;;;;;15.44;63.09;100741.84;5058523;28;2039;-94
2022/06/06 08:39:02;;;;;;;;;;;;;;;15.45;63.12;100743.50;5074137;28;1440;-93
2022/06/06 08:41:28;;;;;;;;;;;;;;;15.45;63.07;100740.78;5057791;28;1373;-94
2022/06/06 08:43:55;;;;;;;;;;;;;;;15.48;63.06;100747.59;5073764;28;1902;-93
2022/06/06 08:46:21;;;;;;;;;;;;;;;15.47;63.07;100740.50;5056010;28;1457;-93
2022/06/06 08:48:48;;;;;;;;;;;;;;;15.47;63.00;100737.81;5053740;28;1380;-94
2022/06/06 08:51:13;;;;;;;;;;;;;;;15.47;62.97;100727.78;5073162;28;1930;-94
2022/06/06 08:53:39;;;;;;;;;;;;;;;15.48;63.03;100725.91;5055879;28;1387;-93
2022/06/06 08:56:07;;;;;;;;;;;;;;;15.48;63.11;100717.75;5074515;28;1583;-93
2022/06/06 08:58:34;;;;;;;;;;;;;;;15.49;63.09;100722.91;5073413;28;1412;-94
2022/06/06 09:01:00;;;;;;;;;;;;;;;15.49;63.13;100713.97;5056946;28;1768;-93
2022/06/06 09:03:30;;;;;;;;;;;;;;;15.51;63.08;100717.25;5073562;28;1724;-93
2022/06/06 09:05:57;;;;;;;;;;;;;;;15.51;63.26;100709.94;5065060;28;1972;-94
2022/06/06 09:08:23;;;;;;;;;;;;;;;15.50;63.13;100708.28;5056662;28;1290;-93
2022/06/06 09:10:50;;;;;;;;;;;;;;;15.52;63.07;100718.88;5073760;28;1364;-94
2022/06/06 09:13:18;;;;;;;;;;;;;;;15.53;63.17;100712.38;5051556;28;1338;-92
2022/06/06 09:15:44;;;;;;;;;;;;;;;15.53;63.11;100706.94;5039898;28;3587;-93
2022/06/06 09:18:11;;;;;;;;;;;;;;;15.53;62.95;100702.38;5072818;28;4133;-93
2022/06/06 09:20:37;;;;;;;;;;;;;;;15.53;63.07;100701.53;5037712;28;1240;-93
2022/06/06 09:23:10;;;;;;;;;;;;;;;15.54;63.17;100693.16;5039237;28;1202;-95
2022/06/06 09:25:39;;;;;;;;;;;;;;;15.56;63.19;100692.88;5070173;28;1973;-93
2022/06/06 09:28:05;;;;;;;;;;;;;;;15.57;63.26;100675.53;5040307;28;2805;-93
2022/06/06 09:30:32;;;;;;;;;;;;;;;15.57;63.36;100689.94;5036951;28;1379;-92
2022/06/06 09:32:58;;;;;;;;;;;;;;;15.59;63.32;100686.97;5069674;28;1394;-93
2022/06/06 09:35:25;;;;;;;;;;;;;;;15.59;63.31;100682.38;5073253;28;1333;-93
2022/06/06 09:37:52;;;;;;;;;;;;;;;15.60;63.35;100681.28;5057067;28;1355;-92
2022/06/06 09:40:21;;;;;;;;;;;;;;;15.62;63.45;100681.88;5056495;28;1577;-93
2022/06/06 09:42:54;;;;;;;;;;;;;;;15.64;63.46;100681.59;5044997;28;1412;-93
2022/06/06 09:45:21;;;;;;;;;;;;;;;15.64;63.41;100684.31;5038519;28;1962;-93
2022/06/06 09:47:48;;;;;;;;;;;;;;;15.65;63.51;100684.09;5056922;28;1313;-92
2022/06/06 09:50:14;;;;;;;;;;;;;;;15.67;63.57;100683.81;5045962;28;2023;-94
2022/06/06 09:52:41;;;;;;;;;;;;;;;15.69;63.52;100683.63;5050550;28;1444;-95
2022/06/06 10:00:36;;;;;;;;;;;;;;;15.74;63.54;100678.25;5059599;28;1590;-94
2022/06/06 10:03:02;;;;;;;;;;;;;;;15.75;63.51;100675.28;5052102;28;1208;-94
2022/06/06 10:05:29;;;;;;;;;;;;;;;15.75;63.61;100674.47;5062944;28;1914;-94
2022/06/06 10:07:55;;;;;;;;;;;;;;;15.77;63.62;100670.44;5075589;28;1445;-94
2022/06/06 10:10:22;;;;;;;;;;;;;;;15.76;63.67;100659.81;5060692;28;1505;-93
2022/06/06 10:12:49;;;;;;;;;;;;;;;15.77;63.64;100673.13;5076239;28;1355;-94
2022/06/06 10:15:16;;;;;;;;;;;;;;;15.78;63.74;100665.81;5059344;28;1309;-94
2022/06/06 10:17:43;;;;;;;;;;;;;;;15.81;63.77;100670.75;5059566;28;1386;-95
2022/06/06 10:20:09;;;;;;;;;;;;;;;15.81;63.76;100670.75;5055856;28;1184;-95
2022/06/06 10:22:36;;;;;;;;;;;;;;;15.82;63.76;100669.66;5060849;28;1820;-95
2022/06/06 10:25:02;;;;;;;;;;;;;;;15.82;63.84;100667.75;5077034;28;1906;-94
2022/06/06 10:27:29;;;;;;;;;;;;;;;15.84;63.76;100662.91;5066106;28;2362;-95
2022/06/06 10:30:14;;;;;;;;;;;;;;;15.85;63.93;100666.44;5046601;28;1590;-94
2022/06/06 10:32:40;;;;;;;;;;;;;;;15.85;63.87;100656.41;5056722;28;1698;-94
2022/06/06 10:35:07;;;;;;;;;;;;;;;15.87;63.97;100656.97;5068975;28;1751;-95
2022/06/06 10:37:34;;;;;;;;;;;;;;;15.88;63.86;100647.78;5047116;28;1435;-95
2022/06/06 10:40:01;;;;;;;;;;;;;;;15.90;63.92;100648.31;5057061;28;1156;-95
2022/06/06 10:42:27;;;;;;;;;;;;;;;15.92;64.02;100644.53;5067836;28;1409;-95
2022/06/06 10:44:54;;;;;;;;;;;;;;;15.94;63.99;100639.66;5059671;28;1989;-94
2022/06/06 10:47:20;;;;;;;;;;;;;;;15.95;63.85;100636.69;5057803;28;1467;-95
2022/06/06 10:49:47;;;;;;;;;;;;;;;15.98;63.92;100636.19;5057859;28;2161;-94
2022/06/06 10:52:13;;;;;;;;;;;;;;;15.99;63.89;100640.53;5048001;28;2216;-95
2022/06/06 10:54:40;;;;;;;;;;;;;;;16.00;64.02;100636.78;5064794;28;1900;-95
2022/06/06 10:57:19;;;;;;;;;;;;;;;;;;;;;
2022/06/06 10:59:48;;;;;;;;;;;;;;;16.03;63.98;100630.84;5055943;28;1395;-95
2022/06/06 11:02:15;;;;;;;;;;;;;;;16.02;64.19;100628.34;5075419;28;1398;-95
2022/06/06 11:04:42;;;;;;;;;;;;;;;16.02;64.15;100645.47;5059121;28;1973;-95
2022/06/06 11:07:08;;;;;;;;;;;;;;;16.05;64.12;100630.56;5058988;28;1204;-96
2022/06/06 11:09:35;;;;;;;;;;;;;;;16.06;64.21;100627.59;5059373;28;1378;-94
2022/06/06 11:12:01;;;;;;;;;;;;;;;16.09;64.23;100632.53;5058767;28;1337;-96
2022/06/06 11:14:28;;;;;;;;;;;;;;;16.11;64.16;100632.25;5054327;28;2099;-95
2022/06/06 11:16:54;;;;;;;;;;;;;;;16.31;63.75;100620.78;5053734;28;1328;-95
2022/06/06 11:19:21;;;;;;;;;;;;;;;16.34;63.69;100623.00;5040751;28;1704;-95
2022/06/06 11:21:48;;;;;;;;;;;;;;;16.26;64.05;100616.13;5053602;28;1945;-95
2022/06/06 11:24:14;;;;;;;;;;;;;;;16.24;64.04;100620.19;5075237;28;1321;-95
2022/06/06 11:26:41;;;;;;;;;;;;;;;16.24;64.08;100620.19;5046938;28;1918;-95
2022/06/06 11:29:07;;;;;;;;;;;;;;;16.23;64.12;100605.75;5063716;28;1484;-94
2022/06/06 11:31:36;;;;;;;;;;;;;;;16.25;64.00;100617.19;5056462;28;1712;-94
2022/06/06 11:34:02;;;;;;;;;;;;;;;16.26;64.13;100601.72;5055395;28;1322;-94
2022/06/06 11:36:29;;;;;;;;;;;;;;;16.26;64.13;100610.69;5074668;28;1586;-94
2022/06/06 11:38:55;;;;;;;;;;;;;;;16.27;64.26;100612.34;5075565;28;1376;-94
2022/06/06 11:41:22;;;;;;;;;;;;;;;16.28;64.25;100596.84;5058932;28;1203;-94
2022/06/06 11:43:48;;;;;;;;;;;;;;;16.30;64.19;100608.31;5059032;28;1218;-94
2022/06/06 11:46:15;;;;;;;;;;;;;;;16.31;64.27;100590.91;5054314;28;1905;-94
2022/06/06 11:48:41;;;;;;;;;;;;;;;16.33;64.29;100596.91;5047629;28;1957;-94
2022/06/06 11:51:08;;;;;;;;;;;;;;;16.35;64.32;100595.59;5037726;28;1547;-94
2022/06/06 11:53:34;;;;;;;;;;;;;;;16.37;64.38;100594.50;5050865;28;1976;-95
2022/06/06 11:56:01;;;;;;;;;;;;;;;16.36;64.46;100596.41;5056838;28;1420;-94
2022/06/06 11:58:27;;;;;;;;;;;;;;;16.38;64.48;100594.22;5055566;28;1203;-94
2022/06/06 12:00:54;;;;;;;;;;;;;;;16.40;64.53;100592.06;5070112;28;1503;-95
2022/06/06 12:03:26;;;;;;;;;;;;;;;16.43;64.48;100588.03;5055341;28;1195;-95
2022/06/06 12:05:53;;;;;;;;;;;;;;;16.43;64.51;100593.47;5053695;28;1914;-94
2022/06/06 12:08:19;;;;;;;;;;;;;;;16.45;64.52;100583.97;5054800;28;1204;-94
2022/06/06 12:10:46;;;;;;;;;;;;;;;16.47;64.51;100592.69;5070151;28;1371;-94
2022/06/06 12:13:15;;;;;;;;;;;;;;;16.48;64.66;100586.19;5055567;28;1282;-94
2022/06/06 12:15:42;;;;;;;;;;;;;;;16.50;64.65;100580.47;5052174;28;1928;-94
2022/06/06 12:18:08;;;;;;;;;;;;;;;16.49;64.71;100576.94;5055504;28;1384;-94
2022/06/06 12:20:36;;;;;;;;;;;;;;;16.51;64.79;100576.69;5048570;28;1633;-94
2022/06/06 12:23:03;;;;;;;;;;;;;;;16.53;64.69;100579.94;5055743;28;1372;-95
2022/06/06 12:25:29;;;;;;;;;;;;;;;16.55;64.65;100575.91;5070745;28;2419;-95
2022/06/06 12:27:56;;;;;;;;;;;;;;;16.57;64.70;100578.38;5045487;28;4922;-95
2022/06/06 12:30:22;;;;;;;;;;;;;;;16.56;64.73;100572.13;5049766;28;1211;-94
2022/06/06 12:32:49;;;;;;;;;;;;;;;16.57;64.72;100565.59;5044854;28;2120;-94
2022/06/06 12:35:15;;;;;;;;;;;;;;;16.60;64.86;100568.88;5050406;28;1322;-95
2022/06/06 12:37:43;;;;;;;;;;;;;;;16.64;64.85;100575.44;5041326;28;2513;-94
2022/06/06 12:40:10;;;;;;;;;;;;;;;16.66;64.82;100570.56;5049273;28;1230;-94
2022/06/06 12:42:36;;;;;;;;;;;;;;;16.67;64.99;100564.84;5070600;28;1283;-93
2022/06/06 12:45:03;;;;;;;;;;;;;;;16.69;64.77;100570.03;5046072;28;1914;-94
2022/06/06 12:47:30;;;;;;;;;;;;;;;16.71;64.89;100571.44;5044491;28;1809;-94
2022/06/06 12:49:56;;;;;;;;;;;;;;;16.74;64.83;100575.53;5036923;28;1446;-93
2022/06/06 12:52:23;;;;;;;;;;;;;;;16.74;64.85;100564.66;5055765;28;1897;-94
2022/06/06 12:57:34;;;;;;;;;;;;;;;16.78;65.09;100563.06;5060917;28;2418;-93
2022/06/06 13:00:01;;;;;;;;;;;;;;;16.79;64.99;100561.97;5071258;28;1354;-95
2022/06/06 13:02:27;;;;;;;;;;;;;;;16.81;64.93;100559.81;5056278;28;2055;-96
2022/06/06 13:04:54;;;;;;;;;;;;;;;16.84;65.22;100558.50;5056209;28;1320;-94
2022/06/06 13:07:20;;;;;;;;;;;;;;;16.83;65.00;100554.97;5060731;28;1913;-95